Time;durP1;ratioP1;P1;durP2;ratioP2;P2;SDS_P1;SDS_P2;PMS_P1;PMS_P2;Temp;Humidity;BMP_temperature;BMP_pressure;BME280_temperature;BME280_humidity;BME280_pressure;Samples;Min_cycle;Max_cycle;Signal;HPM_P1;HPM_P2
2021/04/27 00:01:54;;;;;;;4.40;4.00;;;;;;;;;;5001583;28;20474;-64
2021/04/27 00:04:21;;;;;;;3.63;3.37;;;;;;;;;;4993363;28;20984;-63
2021/04/27 00:06:48;;;;;;;3.47;3.17;;;;;;;;;;4994397;28;20453;-63
2021/04/27 00:09:14;;;;;;;3.67;3.37;;;;;;;;;;4992905;28;20447;-63
2021/04/27 00:11:41;;;;;;;3.63;3.33;;;;;;;;;;5003076;28;20470;-63
2021/04/27 00:14:09;;;;;;;3.40;3.10;;;;;;;;;;4993732;28;20461;-63
2021/04/27 00:16:36;;;;;;;3.90;3.50;;;;;;;;;;4992961;28;20504;-64
2021/04/27 00:19:03;;;;;;;4.03;3.40;;;;;;;;;;4993233;28;20453;-64
2021/04/27 00:21:30;;;;;;;6.07;4.07;;;;;;;;;;5022575;23;20500;-62
2021/04/27 00:23:57;;;;;;;3.97;3.67;;;;;;;;;;5011858;28;20462;-63
2021/04/27 00:26:23;;;;;;;3.70;3.40;;;;;;;;;;5011322;28;20462;-62
2021/04/27 00:28:50;;;;;;;3.87;3.57;;;;;;;;;;5012104;28;20445;-62
2021/04/27 00:31:17;;;;;;;4.23;3.83;;;;;;;;;;5007769;28;20475;-61
2021/04/27 00:33:44;;;;;;;4.87;3.57;;;;;;;;;;4992609;28;20447;-62
2021/04/27 00:36:10;;;;;;;3.73;3.43;;;;;;;;;;4992665;28;20478;-62
2021/04/27 00:38:37;;;;;;;4.00;3.70;;;;;;;;;;4992702;28;20504;-62
2021/04/27 00:41:04;;;;;;;4.50;4.00;;;;;;;;;;4992182;28;21059;-62
2021/04/27 00:43:30;;;;;;;3.90;3.57;;;;;;;;;;4992802;28;20446;-62
2021/04/27 00:45:57;;;;;;;4.13;3.83;;;;;;;;;;4992480;28;20447;-62
2021/04/27 00:48:25;;;;;;;4.20;3.90;;;;;;;;;;4992103;28;20462;-62
2021/04/27 00:50:51;;;;;;;4.00;3.63;;;;;;;;;;4992516;28;20477;-64
2021/04/27 00:53:18;;;;;;;3.83;3.53;;;;;;;;;;4992201;28;20451;-62
2021/04/27 00:55:44;;;;;;;3.37;3.07;;;;;;;;;;4992272;28;20490;-62
2021/04/27 00:58:11;;;;;;;3.90;3.33;;;;;;;;;;4992330;28;20455;-61
2021/04/27 01:00:39;;;;;;;4.60;4.23;;;;;;;;;;4992102;28;20934;-61
2021/04/27 01:03:06;;;;;;;3.80;3.53;;;;;;;;;;4992507;28;20471;-62
2021/04/27 01:05:35;;;;;;;5.90;3.67;;;;;;;;;;4991438;28;20450;-61
2021/04/27 01:08:05;;;;;;;5.30;3.83;;;;;;;;;;4992461;28;20901;-61
2021/04/27 01:10:40;;;;;;;4.30;3.90;;;;;;;;;;4992557;28;20455;-63
2021/04/27 01:13:09;;;;;;;4.63;4.23;;;;;;;;;;4992357;28;20469;-61
2021/04/27 01:15:35;;;;;;;4.00;3.70;;;;;;;;;;4992093;28;20482;-62
2021/04/27 01:18:02;;;;;;;3.73;3.43;;;;;;;;;;4992046;28;20513;-62
2021/04/27 01:20:35;;;;;;;5.37;3.87;;;;;;;;;;4992193;28;20466;-63
2021/04/27 01:23:09;;;;;;;7.07;4.17;;;;;;;;;;4992148;28;21005;-62
2021/04/27 01:25:38;;;;;;;5.10;3.80;;;;;;;;;;5000769;28;20456;-62
2021/04/27 01:28:07;;;;;;;4.53;4.13;;;;;;;;;;5013813;28;20948;-63
2021/04/27 01:30:37;;;;;;;5.00;4.00;;;;;;;;;;4998519;28;20450;-62
2021/04/27 01:33:04;;;;;;;4.87;4.13;;;;;;;;;;4996451;28;20545;-62
2021/04/27 01:35:31;;;;;;;4.10;3.57;;;;;;;;;;4996151;28;21227;-62
2021/04/27 01:37:58;;;;;;;3.87;3.47;;;;;;;;;;4983740;28;20454;-62
2021/04/27 01:40:25;;;;;;;3.70;3.40;;;;;;;;;;5009904;28;20449;-63
2021/04/27 01:42:52;;;;;;;5.57;4.27;;;;;;;;;;5009058;28;20467;-62
2021/04/27 01:45:19;;;;;;;4.03;3.63;;;;;;;;;;4995627;28;20502;-62
2021/04/27 01:47:46;;;;;;;6.83;4.10;;;;;;;;;;4996288;28;20458;-61
2021/04/27 01:50:13;;;;;;;4.00;3.70;;;;;;;;;;4997960;28;20455;-63
2021/04/27 01:52:40;;;;;;;4.03;3.63;;;;;;;;;;5005341;28;20470;-62
2021/04/27 01:55:07;;;;;;;5.63;3.67;;;;;;;;;;4995909;28;20482;-62
2021/04/27 01:57:34;;;;;;;3.67;3.30;;;;;;;;;;4995790;28;20457;-62
2021/04/27 02:00:00;;;;;;;3.53;3.23;;;;;;;;;;4995674;28;20461;-62
2021/04/27 02:02:32;;;;;;;4.03;3.73;;;;;;;;;;4995824;28;20477;-63
2021/04/27 02:04:59;;;;;;;4.87;4.40;;;;;;;;;;4995644;28;20968;-62
2021/04/27 02:07:25;;;;;;;4.00;3.73;;;;;;;;;;4998324;28;20449;-64
2021/04/27 02:09:52;;;;;;;3.80;3.50;;;;;;;;;;5004125;28;20949;-62
2021/04/27 02:12:19;;;;;;;4.03;3.60;;;;;;;;;;5000383;28;20834;-62
2021/04/27 02:14:45;;;;;;;3.60;3.30;;;;;;;;;;5015553;28;20456;-62
2021/04/27 02:17:15;;;;;;;3.57;3.27;;;;;;;;;;4995666;28;20454;-62
2021/04/27 02:19:43;;;;;;;3.80;3.50;;;;;;;;;;4998121;28;20461;-62
2021/04/27 02:22:10;;;;;;;3.67;3.37;;;;;;;;;;5006080;28;20539;-62
2021/04/27 02:24:38;;;;;;;3.83;3.47;;;;;;;;;;5008682;28;20454;-62
2021/04/27 02:27:06;;;;;;;4.30;4.00;;;;;;;;;;4995783;28;20953;-62
2021/04/27 02:29:34;;;;;;;3.37;3.10;;;;;;;;;;4995617;28;20465;-62
2021/04/27 02:32:01;;;;;;;5.93;3.70;;;;;;;;;;4998505;28;20469;-62
2021/04/27 02:34:28;;;;;;;4.20;3.80;;;;;;;;;;5010962;28;20508;-63
2021/04/27 02:36:56;;;;;;;4.43;4.13;;;;;;;;;;4999957;28;20993;-61
2021/04/27 02:39:23;;;;;;;4.13;3.83;;;;;;;;;;4995232;28;20450;-62
2021/04/27 02:41:50;;;;;;;4.23;3.63;;;;;;;;;;4996150;28;20470;-61
2021/04/27 02:44:17;;;;;;;4.10;3.80;;;;;;;;;;4999196;28;20446;-62
2021/04/27 02:46:44;;;;;;;3.90;3.60;;;;;;;;;;5021623;28;20792;-63
2021/04/27 02:49:11;;;;;;;4.53;4.13;;;;;;;;;;5024445;28;20464;-63
2021/04/27 02:51:38;;;;;;;4.30;4.00;;;;;;;;;;5015115;28;20482;-62
2021/04/27 02:54:06;;;;;;;3.70;3.40;;;;;;;;;;4996130;28;20465;-63
2021/04/27 02:56:32;;;;;;;4.30;4.00;;;;;;;;;;4998520;28;20474;-63
2021/04/27 02:58:59;;;;;;;4.63;4.07;;;;;;;;;;4998336;28;20504;-63
2021/04/27 03:01:26;;;;;;;5.30;4.27;;;;;;;;;;4995133;28;20474;-62
2021/04/27 03:03:52;;;;;;;4.87;4.47;;;;;;;;;;5006619;28;20466;-64
2021/04/27 03:06:19;;;;;;;4.70;4.13;;;;;;;;;;5014088;28;20446;-62
2021/04/27 03:08:46;;;;;;;4.97;4.40;;;;;;;;;;4997915;28;20451;-62
2021/04/27 03:11:13;;;;;;;4.63;4.20;;;;;;;;;;5009058;28;20892;-62
2021/04/27 03:13:40;;;;;;;4.70;4.30;;;;;;;;;;5010665;28;20991;-62
2021/04/27 03:16:06;;;;;;;6.33;4.37;;;;;;;;;;5000939;28;20482;-62
2021/04/27 03:18:33;;;;;;;5.00;4.40;;;;;;;;;;4994445;28;20517;-62
2021/04/27 03:21:00;;;;;;;6.00;5.23;;;;;;;;;;5005733;28;20453;-62
2021/04/27 03:23:26;;;;;;;4.47;4.17;;;;;;;;;;4996502;28;20537;-62
2021/04/27 03:25:53;;;;;;;5.33;4.83;;;;;;;;;;5011860;28;20450;-63
2021/04/27 03:28:21;;;;;;;4.93;4.53;;;;;;;;;;4995203;28;20823;-62
2021/04/27 03:30:47;;;;;;;5.17;4.70;;;;;;;;;;5013266;28;20457;-62
2021/04/27 03:33:14;;;;;;;4.53;4.13;;;;;;;;;;4995750;28;20458;-62
2021/04/27 03:35:44;;;;;;;4.90;4.50;;;;;;;;;;5013486;28;20485;-62
2021/04/27 03:38:11;;;;;;;5.60;4.10;;;;;;;;;;5009941;28;20457;-62
2021/04/27 03:40:37;;;;;;;5.63;4.10;;;;;;;;;;5013515;28;20456;-63
2021/04/27 03:43:04;;;;;;;5.17;4.70;;;;;;;;;;5009628;28;20480;-62
2021/04/27 03:45:35;;;;;;;4.83;4.33;;;;;;;;;;4998698;28;20451;-62
2021/04/27 03:48:03;;;;;;;4.40;4.00;;;;;;;;;;4993123;28;21012;-60
2021/04/27 03:50:29;;;;;;;5.60;4.90;;;;;;;;;;4992542;28;20485;-62
2021/04/27 03:52:56;;;;;;;4.83;4.53;;;;;;;;;;4996715;28;20476;-61
2021/04/27 03:55:23;;;;;;;4.87;4.47;;;;;;;;;;5004955;28;21019;-62
2021/04/27 03:57:49;;;;;;;5.73;5.13;;;;;;;;;;4994291;28;20450;-61
2021/04/27 04:00:17;;;;;;;7.00;4.47;;;;;;;;;;5004671;28;20461;-61
2021/04/27 04:02:44;;;;;;;7.33;4.80;;;;;;;;;;4993182;28;20849;-61
2021/04/27 04:05:11;;;;;;;4.40;4.10;;;;;;;;;;5000398;28;20952;-62
2021/04/27 04:07:38;;;;;;;5.30;4.80;;;;;;;;;;4996053;28;21012;-62
2021/04/27 04:10:05;;;;;;;4.70;4.40;;;;;;;;;;4999731;28;20461;-61
2021/04/27 04:12:32;;;;;;;5.27;4.80;;;;;;;;;;4996964;28;21004;-61
2021/04/27 04:14:58;;;;;;;4.87;4.47;;;;;;;;;;5010596;28;20446;-61
2021/04/27 04:17:25;;;;;;;5.73;5.23;;;;;;;;;;4999024;28;20500;-61
2021/04/27 04:19:53;;;;;;;4.77;4.40;;;;;;;;;;4994300;28;20454;-61
2021/04/27 04:22:20;;;;;;;7.23;4.67;;;;;;;;;;4992932;28;21008;-61
2021/04/27 04:24:46;;;;;;;6.50;4.57;;;;;;;;;;4997092;28;20455;-62
2021/04/27 04:27:13;;;;;;;4.97;4.47;;;;;;;;;;5000893;28;20447;-61
2021/04/27 04:29:40;;;;;;;4.60;4.20;;;;;;;;;;4998884;28;20461;-61
2021/04/27 04:32:09;;;;;;;4.97;4.37;;;;;;;;;;4992787;28;20483;-61
2021/04/27 04:34:36;;;;;;;6.03;5.43;;;;;;;;;;4994591;28;20454;-61
2021/04/27 04:37:04;;;;;;;5.10;4.70;;;;;;;;;;4992127;28;20861;-61
2021/04/27 04:39:30;;;;;;;4.63;4.33;;;;;;;;;;5003901;28;20504;-64
2021/04/27 04:41:57;;;;;;;4.97;4.47;;;;;;;;;;4992814;28;20471;-62
2021/04/27 04:44:23;;;;;;;5.33;4.93;;;;;;;;;;4993130;28;20791;-61
2021/04/27 04:46:50;;;;;;;4.87;4.57;;;;;;;;;;4992203;28;20451;-61
2021/04/27 04:49:17;;;;;;;5.10;4.60;;;;;;;;;;4993021;28;20872;-62
2021/04/27 04:51:43;;;;;;;5.20;4.80;;;;;;;;;;4992618;28;20474;-62
2021/04/27 04:54:11;;;;;;;4.93;4.53;;;;;;;;;;4992611;28;20457;-62
2021/04/27 04:56:38;;;;;;;6.33;4.40;;;;;;;;;;4991864;28;20518;-61
2021/04/27 04:59:04;;;;;;;5.73;4.70;;;;;;;;;;4992820;28;20454;-61
2021/04/27 05:01:31;;;;;;;5.17;4.30;;;;;;;;;;4992113;28;20474;-61
2021/04/27 05:03:57;;;;;;;5.07;4.60;;;;;;;;;;4992646;28;20450;-60
2021/04/27 05:06:25;;;;;;;5.53;4.70;;;;;;;;;;5000620;28;20493;-61
2021/04/27 05:08:53;;;;;;;5.03;4.17;;;;;;;;;;5000370;28;20840;-62
2021/04/27 05:11:20;;;;;;;4.90;4.33;;;;;;;;;;4994528;28;20529;-61
2021/04/27 05:13:47;;;;;;;4.40;4.07;;;;;;;;;;4992346;28;21098;-61
2021/04/27 05:16:14;;;;;;;4.73;4.10;;;;;;;;;;4991713;28;20482;-61
2021/04/27 05:18:41;;;;;;;4.77;3.40;;;;;;;;;;4992557;28;20447;-61
2021/04/27 05:21:08;;;;;;;5.17;3.70;;;;;;;;;;4991836;28;20915;-61
2021/04/27 05:23:35;;;;;;;3.87;3.50;;;;;;;;;;4992660;28;20461;-61
2021/04/27 05:26:02;;;;;;;4.07;3.70;;;;;;;;;;4992030;28;20448;-62
2021/04/27 05:28:29;;;;;;;4.37;3.70;;;;;;;;;;4991793;28;20462;-62
2021/04/27 05:30:56;;;;;;;5.20;3.83;;;;;;;;;;4992266;28;20456;-62
2021/04/27 05:33:23;;;;;;;5.53;4.17;;;;;;;;;;4992663;28;20458;-61
2021/04/27 05:35:49;;;;;;;4.47;2.00;;;;;;;;;;5004865;28;20490;-62
2021/04/27 05:38:16;;;;;;;27.57;2.30;;;;;;;;;;4993189;28;20454;-62
2021/04/27 05:40:42;;;;;;;2.30;1.60;;;;;;;;;;4994129;28;20447;-60
2021/04/27 05:43:09;;;;;;;5.00;1.70;;;;;;;;;;4993282;28;20466;-61
2021/04/27 05:45:37;;;;;;;4.90;1.67;;;;;;;;;;4991923;28;20458;-62
2021/04/27 05:48:04;;;;;;;3.60;1.57;;;;;;;;;;4992324;28;20477;-60
2021/04/27 05:50:31;;;;;;;4.40;1.40;;;;;;;;;;4992064;28;20803;-61
2021/04/27 05:52:57;;;;;;;1.90;1.33;;;;;;;;;;4991978;28;20478;-60
2021/04/27 05:55:24;;;;;;;1.60;1.13;;;;;;;;;;4992201;28;20446;-60
2021/04/27 05:57:51;;;;;;;2.80;1.40;;;;;;;;;;4991568;28;20459;-61
2021/04/27 06:00:19;;;;;;;2.07;1.50;;;;;;;;;;4992178;28;20787;-61
2021/04/27 06:02:46;;;;;;;1.80;1.60;;;;;;;;;;4991803;28;20481;-61
2021/04/27 06:05:13;;;;;;;3.20;1.50;;;;;;;;;;4992243;28;20500;-61
2021/04/27 06:07:40;;;;;;;3.30;1.77;;;;;;;;;;4992073;28;20451;-61
2021/04/27 06:10:07;;;;;;;3.27;1.43;;;;;;;;;;4992248;28;20816;-61
2021/04/27 06:12:34;;;;;;;3.83;1.50;;;;;;;;;;4991904;28;20836;-61
2021/04/27 06:15:01;;;;;;;3.77;1.40;;;;;;;;;;4995347;28;20451;-61
2021/04/27 06:17:27;;;;;;;1.90;1.17;;;;;;;;;;4995136;28;20482;-60
2021/04/27 06:19:55;;;;;;;4.63;1.00;;;;;;;;;;4995576;28;20942;-61
2021/04/27 06:22:21;;;;;;;2.30;1.10;;;;;;;;;;5021402;23;20868;-65
2021/04/27 06:24:48;;;;;;;2.40;1.03;;;;;;;;;;4995635;28;20458;-64
2021/04/27 06:27:15;;;;;;;2.53;1.50;;;;;;;;;;4995268;28;20457;-63
2021/04/27 06:29:41;;;;;;;1.60;1.27;;;;;;;;;;4995320;28;20551;-65
2021/04/27 06:32:08;;;;;;;1.30;1.10;;;;;;;;;;5004565;28;20469;-63
2021/04/27 06:34:35;;;;;;;1.60;1.17;;;;;;;;;;5014916;28;20449;-64
2021/04/27 06:37:02;;;;;;;1.50;1.30;;;;;;;;;;5007797;28;20482;-66
2021/04/27 06:39:29;;;;;;;1.37;1.13;;;;;;;;;;4995492;28;20450;-64
2021/04/27 06:41:55;;;;;;;1.67;1.33;;;;;;;;;;4994288;28;20993;-64
2021/04/27 06:44:22;;;;;;;5.53;1.23;;;;;;;;;;4995176;28;20458;-62
2021/04/27 06:46:48;;;;;;;4.13;1.40;;;;;;;;;;4995056;28;20443;-63
2021/04/27 06:49:15;;;;;;;7.53;1.90;;;;;;;;;;4988805;28;20547;-63
2021/04/27 06:51:42;;;;;;;4.83;1.43;;;;;;;;;;4984581;28;20477;-65
2021/04/27 06:54:09;;;;;;;2.83;1.13;;;;;;;;;;4988283;28;20463;-63
2021/04/27 06:56:36;;;;;;;3.47;1.50;;;;;;;;;;4975857;28;20491;-63
2021/04/27 06:59:03;;;;;;;1.70;1.20;;;;;;;;;;5000201;28;20454;-63
2021/04/27 07:01:30;;;;;;;2.53;1.50;;;;;;;;;;4980648;28;20456;-62
2021/04/27 07:03:56;;;;;;;2.60;1.00;;;;;;;;;;4975336;28;20855;-64
2021/04/27 07:06:23;;;;;;;2.20;1.23;;;;;;;;;;4974580;28;20451;-63
2021/04/27 07:08:49;;;;;;;10.90;2.50;;;;;;;;;;4984572;28;20451;-63
2021/04/27 07:11:17;;;;;;;4.50;1.73;;;;;;;;;;4988870;28;20478;-65
2021/04/27 07:13:43;;;;;;;4.33;1.57;;;;;;;;;;4975066;28;20497;-63
2021/04/27 07:16:10;;;;;;;6.83;1.97;;;;;;;;;;4987120;28;20493;-66
2021/04/27 07:18:37;;;;;;;3.73;2.00;;;;;;;;;;4984208;28;20501;-63
2021/04/27 07:21:03;;;;;;;4.07;2.60;;;;;;;;;;4992108;28;20497;-65
2021/04/27 07:23:30;;;;;;;2.77;2.20;;;;;;;;;;4990276;28;20853;-65
2021/04/27 07:25:56;;;;;;;3.23;2.20;;;;;;;;;;4980500;28;20453;-65
2021/04/27 07:28:24;;;;;;;3.00;2.30;;;;;;;;;;4993008;28;20493;-64
2021/04/27 07:30:52;;;;;;;3.07;2.17;;;;;;;;;;4974366;28;20948;-65
2021/04/27 07:33:18;;;;;;;3.03;2.73;;;;;;;;;;4989418;28;20474;-64
2021/04/27 07:35:45;;;;;;;3.07;2.30;;;;;;;;;;4993795;28;20482;-66
2021/04/27 07:38:11;;;;;;;3.70;2.30;;;;;;;;;;4994300;28;20457;-65
2021/04/27 07:40:38;;;;;;;2.30;2.10;;;;;;;;;;4993736;28;20446;-64
2021/04/27 07:43:05;;;;;;;3.90;2.30;;;;;;;;;;4993297;28;20843;-64
2021/04/27 07:45:34;;;;;;;2.90;1.90;;;;;;;;;;4993688;28;20450;-65
2021/04/27 07:48:01;;;;;;;3.00;2.07;;;;;;;;;;4994031;28;20455;-64
2021/04/27 07:50:28;;;;;;;3.37;2.50;;;;;;;;;;4993968;28;20453;-64
2021/04/27 07:52:55;;;;;;;2.40;2.20;;;;;;;;;;4994253;28;21009;-65
2021/04/27 07:55:22;;;;;;;2.57;2.33;;;;;;;;;;4993379;28;20454;-64
2021/04/27 07:57:48;;;;;;;3.20;2.10;;;;;;;;;;4993513;28;20465;-64
2021/04/27 08:00:16;;;;;;;2.80;1.77;;;;;;;;;;4993329;28;20451;-64
2021/04/27 08:02:43;;;;;;;2.70;2.37;;;;;;;;;;4983897;28;20471;-64
2021/04/27 08:05:11;;;;;;;3.13;2.10;;;;;;;;;;4973953;28;20451;-64
2021/04/27 08:07:37;;;;;;;4.63;2.03;;;;;;;;;;4974012;28;20454;-64
2021/04/27 08:10:06;;;;;;;3.77;2.33;;;;;;;;;;4973907;28;20459;-65
2021/04/27 08:12:32;;;;;;;2.60;2.07;;;;;;;;;;4973892;28;20853;-65
2021/04/27 08:14:59;;;;;;;3.00;1.57;;;;;;;;;;4973861;28;20454;-64
2021/04/27 08:17:26;;;;;;;3.00;2.00;;;;;;;;;;4977515;28;20489;-65
2021/04/27 08:19:53;;;;;;;2.73;1.90;;;;;;;;;;4974163;28;20477;-64
2021/04/27 08:22:20;;;;;;;4.07;2.27;;;;;;;;;;4973668;28;20483;-64
2021/04/27 08:24:47;;;;;;;2.27;2.07;;;;;;;;;;4974115;28;20462;-65
2021/04/27 08:27:14;;;;;;;3.27;2.03;;;;;;;;;;4973632;28;20447;-64
2021/04/27 08:29:41;;;;;;;2.37;2.00;;;;;;;;;;4975373;28;20869;-64
2021/04/27 08:32:07;;;;;;;2.83;1.80;;;;;;;;;;4974259;28;20501;-64
2021/04/27 08:34:34;;;;;;;2.03;1.87;;;;;;;;;;4980468;28;20453;-65
2021/04/27 08:37:02;;;;;;;2.43;2.00;;;;;;;;;;4992283;28;20486;-63
2021/04/27 08:39:29;;;;;;;3.47;2.00;;;;;;;;;;4993125;28;20822;-64
2021/04/27 08:41:55;;;;;;;3.27;1.90;;;;;;;;;;4992838;28;20525;-64
2021/04/27 08:44:22;;;;;;;3.00;2.10;;;;;;;;;;4992557;28;20470;-64
2021/04/27 08:46:50;;;;;;;2.20;2.00;;;;;;;;;;4992449;28;20492;-64
2021/04/27 08:49:16;;;;;;;3.00;2.20;;;;;;;;;;4992715;28;20456;-64
2021/04/27 08:51:43;;;;;;;2.07;1.60;;;;;;;;;;4992164;28;20467;-64
2021/04/27 08:54:11;;;;;;;4.00;1.73;;;;;;;;;;4992460;28;20833;-64
2021/04/27 08:56:37;;;;;;;1.87;1.57;;;;;;;;;;4992069;28;20490;-64
2021/04/27 08:59:05;;;;;;;2.03;1.80;;;;;;;;;;4992483;28;20454;-64
2021/04/27 09:01:32;;;;;;;2.90;1.90;;;;;;;;;;4992202;28;20490;-65
2021/04/27 09:03:59;;;;;;;2.23;2.00;;;;;;;;;;4992589;28;20457;-64
2021/04/27 09:06:26;;;;;;;2.10;1.90;;;;;;;;;;4992176;28;20525;-64
2021/04/27 09:08:53;;;;;;;1.77;1.40;;;;;;;;;;4992164;28;20446;-66
2021/04/27 09:11:34;;;;;;;3.00;1.80;;;;;;;;;;4992285;28;20945;-64
2021/04/27 09:14:11;;;;;;;1.87;1.60;;;;;;;;;;4992217;28;20809;-64
2021/04/27 09:16:38;;;;;;;3.77;1.87;;;;;;;;;;4992012;28;20569;-64
2021/04/27 09:19:05;;;;;;;2.43;1.50;;;;;;;;;;4992231;28;20455;-65
2021/04/27 09:21:33;;;;;;;1.90;1.70;;;;;;;;;;4992492;28;20447;-65
2021/04/27 09:23:59;;;;;;;3.23;1.60;;;;;;;;;;4991836;28;20466;-65
2021/04/27 09:26:26;;;;;;;2.00;1.70;;;;;;;;;;4991973;28;20447;-65
2021/04/27 09:28:57;;;;;;;3.73;2.20;;;;;;;;;;4992910;28;20455;-65
2021/04/27 09:31:27;;;;;;;1.63;1.37;;;;;;;;;;4992331;28;20542;-64
2021/04/27 09:33:55;;;;;;;2.93;1.60;;;;;;;;;;4992142;28;20504;-65
2021/04/27 09:36:22;;;;;;;1.60;1.43;;;;;;;;;;4991771;28;20482;-64
2021/04/27 09:38:52;;;;;;;2.43;1.37;;;;;;;;;;4992381;28;20450;-65
2021/04/27 09:41:23;;;;;;;2.97;1.83;;;;;;;;;;4992006;28;20816;-64
2021/04/27 09:43:50;;;;;;;2.00;1.80;;;;;;;;;;4991768;28;20493;-65
2021/04/27 09:46:19;;;;;;;2.23;1.30;;;;;;;;;;4991704;28;20680;-64
2021/04/27 09:48:46;;;;;;;2.33;1.40;;;;;;;;;;4993441;28;20516;-65
2021/04/27 09:51:19;;;;;;;5.10;1.50;;;;;;;;;;4996259;28;20541;-65
2021/04/27 09:53:48;;;;;;;2.13;1.50;;;;;;;;;;4996391;28;20509;-66
2021/04/27 09:56:31;;;;;;;2.83;1.70;;;;;;;;;;4995587;28;20846;-65
2021/04/27 09:59:01;;;;;;;2.07;1.40;;;;;;;;;;4995783;28;20949;-65
2021/04/27 10:01:29;;;;;;;2.47;1.40;;;;;;;;;;4994543;28;20461;-65
2021/04/27 10:03:55;;;;;;;2.10;1.27;;;;;;;;;;4995929;28;20454;-64
2021/04/27 10:06:22;;;;;;;3.47;1.57;;;;;;;;;;4978026;28;20455;-65
2021/04/27 10:08:50;;;;;;;1.40;1.20;;;;;;;;;;4995020;28;20450;-64
2021/04/27 10:11:17;;;;;;;3.70;1.43;;;;;;;;;;4995285;28;20453;-65
2021/04/27 10:13:43;;;;;;;5.00;1.63;;;;;;;;;;4995620;28;20489;-65
2021/04/27 10:16:10;;;;;;;1.70;1.60;;;;;;;;;;4995356;28;20492;-64
2021/04/27 10:18:38;;;;;;;1.93;1.20;;;;;;;;;;4995561;28;20537;-65
2021/04/27 10:21:05;;;;;;;1.90;1.40;;;;;;;;;;4995374;28;20454;-64
2021/04/27 10:23:32;;;;;;;2.63;1.30;;;;;;;;;;4994510;28;20552;-64
2021/04/27 10:26:00;;;;;;;1.80;1.50;;;;;;;;;;4995038;28;20454;-64
2021/04/27 10:28:46;;;;;;;2.60;1.43;;;;;;;;;;4994143;28;20462;-64
2021/04/27 10:31:15;;;;;;;2.20;1.30;;;;;;;;;;4992800;28;20945;-65
2021/04/27 10:33:57;;;;;;;2.90;1.50;;;;;;;;;;4981769;28;20478;-65
2021/04/27 10:36:25;;;;;;;2.43;2.00;;;;;;;;;;4981143;28;20491;-63
2021/04/27 10:38:55;;;;;;;1.70;1.30;;;;;;;;;;4995245;28;20849;-65
2021/04/27 10:41:22;;;;;;;1.83;1.40;;;;;;;;;;4994692;28;20466;-65
2021/04/27 10:43:53;;;;;;;2.83;1.60;;;;;;;;;;4981602;28;20505;-65
2021/04/27 10:46:53;;;;;;;2.23;1.60;;;;;;;;;;5000903;28;20446;-64
2021/04/27 10:49:23;;;;;;;2.80;1.37;;;;;;;;;;4994076;28;20468;-65
2021/04/27 10:51:50;;;;;;;1.63;1.30;;;;;;;;;;4995755;28;20474;-65
2021/04/27 10:54:21;;;;;;;2.40;1.50;;;;;;;;;;4992288;28;20465;-64
2021/04/27 10:56:49;;;;;;;1.70;1.40;;;;;;;;;;4994458;28;20481;-65
2021/04/27 10:59:16;;;;;;;1.60;1.40;;;;;;;;;;5014208;28;20433;-64
2021/04/27 11:01:44;;;;;;;1.40;1.30;;;;;;;;;;5010409;28;20485;-65
2021/04/27 11:04:28;;;;;;;2.13;1.53;;;;;;;;;;4994590;28;20541;-66
2021/04/27 11:07:09;;;;;;;2.37;1.37;;;;;;;;;;4979549;28;20454;-65
2021/04/27 11:09:36;;;;;;;2.07;1.40;;;;;;;;;;4981879;28;20836;-62
2021/04/27 11:12:30;;;;;;;4.50;1.60;;;;;;;;;;4974576;28;20475;-62
2021/04/27 11:14:59;;;;;;;2.73;1.37;;;;;;;;;;4987995;28;20722;-63
2021/04/27 11:17:29;;;;;;;1.50;1.33;;;;;;;;;;4993990;28;20502;-63
2021/04/27 11:19:56;;;;;;;1.63;1.37;;;;;;;;;;4993639;28;20465;-63
2021/04/27 11:22:25;;;;;;;1.20;1.10;;;;;;;;;;4993709;28;20490;-64
2021/04/27 11:24:52;;;;;;;3.67;1.20;;;;;;;;;;4982947;28;20462;-62
2021/04/27 11:27:23;;;;;;;1.47;1.37;;;;;;;;;;4985168;28;20549;-62
2021/04/27 11:29:54;;;;;;;1.90;1.20;;;;;;;;;;4984019;28;20510;-62
2021/04/27 11:32:21;;;;;;;1.40;1.30;;;;;;;;;;4985138;28;20482;-62
2021/04/27 11:34:49;;;;;;;2.07;1.50;;;;;;;;;;4984872;28;20525;-64
2021/04/27 11:37:20;;;;;;;2.00;1.70;;;;;;;;;;4989253;28;20482;-63
2021/04/27 11:39:47;;;;;;;1.60;1.10;;;;;;;;;;4999646;28;20807;-62
2021/04/27 11:42:14;;;;;;;3.10;1.60;;;;;;;;;;5004020;28;20845;-63
2021/04/27 11:44:41;;;;;;;2.27;1.50;;;;;;;;;;4986759;28;20451;-63
2021/04/27 11:47:09;;;;;;;2.13;1.43;;;;;;;;;;4981176;28;20513;-63
2021/04/27 11:49:46;;;;;;;3.40;1.43;;;;;;;;;;4989625;28;20478;-64
2021/04/27 11:52:13;;;;;;;1.53;1.27;;;;;;;;;;4981167;28;20478;-64
2021/04/27 11:54:40;;;;;;;1.30;1.20;;;;;;;;;;4978500;28;20459;-64
2021/04/27 11:57:14;;;;;;;1.67;1.40;;;;;;;;;;4979846;28;21005;-63
2021/04/27 11:59:40;;;;;;;1.40;1.27;;;;;;;;;;4992680;28;20454;-63
2021/04/27 12:02:07;;;;;;;3.00;1.20;;;;;;;;;;4992777;28;20475;-64
2021/04/27 12:04:33;;;;;;;2.17;1.17;;;;;;;;;;4993070;28;20459;-63
2021/04/27 12:07:01;;;;;;;1.50;1.33;;;;;;;;;;4993341;28;20458;-63
2021/04/27 12:09:27;;;;;;;1.83;1.37;;;;;;;;;;5004527;28;20832;-64
2021/04/27 12:12:07;;;;;;;2.60;1.00;;;;;;;;;;4996201;28;20856;-61
2021/04/27 12:14:34;;;;;;;1.70;1.17;;;;;;;;;;5003416;28;20445;-64
2021/04/27 12:17:01;;;;;;;2.53;1.30;;;;;;;;;;5001151;28;20488;-64
2021/04/27 12:19:27;;;;;;;1.53;1.33;;;;;;;;;;5003126;28;20676;-64
2021/04/27 12:21:56;;;;;;;2.70;1.30;;;;;;;;;;5004931;28;20476;-64
2021/04/27 12:24:24;;;;;;;4.17;1.60;;;;;;;;;;5016671;23;20478;-62
2021/04/27 12:26:52;;;;;;;2.67;1.17;;;;;;;;;;4983082;28;20971;-61
2021/04/27 12:29:25;;;;;;;1.57;1.20;;;;;;;;;;4993939;28;20457;-61
2021/04/27 12:31:52;;;;;;;1.87;1.20;;;;;;;;;;4992682;28;20435;-61
2021/04/27 12:34:19;;;;;;;7.93;1.50;;;;;;;;;;5000463;28;20544;-61
2021/04/27 12:36:46;;;;;;;1.67;1.20;;;;;;;;;;4972781;28;20487;-61
2021/04/27 12:39:26;;;;;;;1.50;1.20;;;;;;;;;;4957380;28;20452;-61
2021/04/27 12:41:53;;;;;;;1.87;1.30;;;;;;;;;;4953612;28;20959;-60
2021/04/27 12:44:28;;;;;;;4.43;1.37;;;;;;;;;;4953939;28;20956;-61
2021/04/27 12:46:55;;;;;;;1.80;1.30;;;;;;;;;;4953762;28;20947;-60
2021/04/27 12:49:25;;;;;;;1.97;1.20;;;;;;;;;;4953999;28;20460;-61
2021/04/27 12:52:00;;;;;;;2.63;1.43;;;;;;;;;;4954071;28;20460;-60
2021/04/27 12:54:28;;;;;;;1.57;1.10;;;;;;;;;;4964634;28;20950;-61
2021/04/27 12:57:04;;;;;;;1.83;1.20;;;;;;;;;;4973061;28;20646;-61
2021/04/27 12:59:32;;;;;;;1.73;1.37;;;;;;;;;;4973488;28;20806;-60
2021/04/27 13:01:59;;;;;;;1.53;1.30;;;;;;;;;;4972829;28;20458;-60
2021/04/27 13:04:29;;;;;;;1.60;1.20;;;;;;;;;;4973176;28;20517;-60
2021/04/27 13:06:56;;;;;;;1.60;1.40;;;;;;;;;;4972570;28;20455;-60
2021/04/27 13:09:28;;;;;;;3.30;1.60;;;;;;;;;;4973009;28;20466;-60
2021/04/27 13:11:56;;;;;;;1.60;1.23;;;;;;;;;;4972992;28;20447;-60
2021/04/27 13:14:24;;;;;;;1.87;1.47;;;;;;;;;;4972947;28;20459;-60
2021/04/27 13:16:53;;;;;;;1.73;1.43;;;;;;;;;;4973124;28;20572;-60
2021/04/27 13:19:19;;;;;;;2.10;1.40;;;;;;;;;;4972974;28;20455;-60
2021/04/27 13:22:01;;;;;;;1.47;1.37;;;;;;;;;;4973176;28;20494;-60
2021/04/27 13:24:36;;;;;;;2.00;1.43;;;;;;;;;;4976649;28;20455;-61
2021/04/27 13:27:02;;;;;;;2.13;1.50;;;;;;;;;;4976475;28;20950;-61
2021/04/27 13:29:33;;;;;;;1.90;1.30;;;;;;;;;;4977225;28;20536;-61
2021/04/27 13:32:11;;;;;;;2.30;1.70;;;;;;;;;;4977049;28;20436;-61
2021/04/27 13:34:38;;;;;;;3.00;1.70;;;;;;;;;;4977141;28;20471;-61
2021/04/27 13:37:05;;;;;;;2.43;1.77;;;;;;;;;;4976496;28;20533;-61
2021/04/27 13:39:31;;;;;;;1.63;1.50;;;;;;;;;;4976640;28;20459;-61
2021/04/27 13:41:58;;;;;;;1.40;1.20;;;;;;;;;;4976651;28;20447;-61
2021/04/27 13:44:24;;;;;;;2.17;1.40;;;;;;;;;;4965937;28;20486;-61
2021/04/27 13:46:51;;;;;;;1.83;1.53;;;;;;;;;;4957417;28;20514;-61
2021/04/27 13:49:18;;;;;;;2.00;1.50;;;;;;;;;;4957043;28;20939;-61
2021/04/27 13:51:45;;;;;;;2.97;1.67;;;;;;;;;;4957107;28;20459;-61
2021/04/27 13:54:12;;;;;;;2.67;1.60;;;;;;;;;;4957282;28;20457;-61
2021/04/27 13:56:38;;;;;;;2.40;1.83;;;;;;;;;;4956850;28;20479;-61
2021/04/27 13:59:06;;;;;;;1.60;1.50;;;;;;;;;;4957489;28;20448;-61
2021/04/27 14:01:33;;;;;;;3.57;1.60;;;;;;;;;;4971101;28;20451;-61
2021/04/27 14:04:00;;;;;;;2.73;1.73;;;;;;;;;;4976638;28;20457;-61
2021/04/27 14:06:28;;;;;;;3.10;1.37;;;;;;;;;;4975956;28;20975;-61
2021/04/27 14:08:54;;;;;;;3.97;1.63;;;;;;;;;;4976633;28;20447;-61
2021/04/27 14:11:21;;;;;;;2.30;1.70;;;;;;;;;;4975899;28;20486;-61
2021/04/27 14:13:48;;;;;;;2.20;1.70;;;;;;;;;;4976485;28;20482;-61
2021/04/27 14:16:14;;;;;;;2.27;1.70;;;;;;;;;;4975807;28;20542;-61
2021/04/27 14:18:41;;;;;;;2.97;2.10;;;;;;;;;;4975694;28;20505;-61
2021/04/27 14:21:08;;;;;;;1.60;1.50;;;;;;;;;;4976362;28;20533;-61
2021/04/27 14:23:35;;;;;;;2.03;1.53;;;;;;;;;;4976311;28;20451;-61
2021/04/27 14:26:02;;;;;;;1.40;1.30;;;;;;;;;;4975493;28;20487;-61
2021/04/27 14:28:28;;;;;;;1.40;1.30;;;;;;;;;;4975855;28;20821;-61
2021/04/27 14:30:55;;;;;;;1.83;1.73;;;;;;;;;;4975856;28;20443;-61
2021/04/27 14:33:21;;;;;;;1.50;1.40;;;;;;;;;;4975874;28;20809;-61
2021/04/27 14:35:49;;;;;;;3.03;1.90;;;;;;;;;;4975047;28;20528;-61
2021/04/27 14:38:15;;;;;;;2.13;1.70;;;;;;;;;;4975355;28;20912;-61
2021/04/27 14:40:43;;;;;;;3.50;1.70;;;;;;;;;;4975600;28;20478;-61
2021/04/27 14:43:10;;;;;;;4.03;1.90;;;;;;;;;;4975519;28;20451;-61
2021/04/27 14:45:37;;;;;;;4.03;1.70;;;;;;;;;;4975020;28;20467;-61
2021/04/27 14:48:04;;;;;;;1.67;1.30;;;;;;;;;;4975481;28;20451;-61